Kendrick, ID

3:35 PM PST on November 25, 2014 (GMT -0800)
Linden, Idaho (Cedar Ridge) | Change Station
CLOSE
Current Station
Personal Weather Station
Location: Kendrick, ID
Elevation: 2707 ft
Nearby Weather Stations
Active Advisory: Winter Weather Advisory Active Notice: Local Storm Report

Elev 2707 ft 46.69 °N, 116.50 °W | Updated 16 seconds ago

Rain
Rain
37.6 °F
Feels Like 38 °F
N
0.9
Wind Variable Wind from South
Gusts 3.0 mph

Today
High -- | Low -- °F
--% Chance of Precip.
Yesterday
High -- | Low -- °F
Precip. -- in
7:02 AM 4:03 PM
Waxing Crescent, 14% visible
Pressure 30.20 in
Visibility 4.0 miles
Clouds Overcast 2400 ft
Windchill 38 °F
Dew Point 36 °F
Humidity 96%
Rainfall 0.81 in
Snow Depth Not available.
UV 0 out of 12
Pollen .10 out of 12
Air Quality Not available.
Flu Activity Not available.
METAR KPUW 252253Z AUTO 33005KT 4SM -RA BR OVC024 04/03 A3017 RMK AO2 SLP226 P0004 T00440033

More Conditions Fewer Conditions

Pressure 30.20 in
Visibility 4.0 miles
Clouds Overcast 2400 ft
Windchill 38 °F
Dew Point 36 °F
Humidity 96%
Rainfall 0.81 in
Snow Depth Not available.
UV 0 out of 12
Pollen .10 out of 12
Air Quality Not available.
Flu Activity Not available.
METAR KPUW 252253Z AUTO 33005KT 4SM -RA BR OVC024 04/03 A3017 RMK AO2 SLP226 P0004 T00440033

More Conditions Fewer Conditions

10-Day Weather Forecast

Almanac

Astronomy

Nov. 25, 2014 Rise Set
Actual Time
Civil Twilight
Nautical Twilight
Astronomical Twilight
Moon
Length of Visible Light
Length of Day
Tomorrow will be .
, % of the Moon is Illuminated

Today's Extremes

State Highs State Lows

Community

WunderPhotos

Upload Photos

1,773,624 photos uploaded!

WunderBlogs® & News

Nearby

Air Quality

  Air Quality AQ Index Pollutant
Not available.

Snow Depth

Station Depth Elevation

Earthquake Activity

City Distance Mag. Time & Date
Minimum magnitude displayed is 2.5.

Coastal Water Temperatures

Place Temperature

Nearby Weather Stations